sensor_id;sensor_type;location;lat;lon;timestamp;P1;durP1;ratioP1;P2;durP2;ratioP2
3447;SDS011;1738;49.500;17.736;2023-03-01T00:01:02;51.77;;;27.30;;
3447;SDS011;1738;49.500;17.736;2023-03-01T00:03:27;51.63;;;28.08;;
3447;SDS011;1738;49.500;17.736;2023-03-01T00:05:53;52.57;;;25.67;;
3447;SDS011;1738;49.500;17.736;2023-03-01T00:08:19;49.73;;;26.27;;
3447;SDS011;1738;49.500;17.736;2023-03-01T00:10:44;60.10;;;33.47;;
3447;SDS011;1738;49.500;17.736;2023-03-01T00:13:10;57.23;;;30.37;;
3447;SDS011;1738;49.500;17.736;2023-03-01T00:15:38;51.20;;;26.07;;
3447;SDS011;1738;49.500;17.736;2023-03-01T00:18:03;57.83;;;27.27;;
3447;SDS011;1738;49.500;17.736;2023-03-01T00:20:29;55.47;;;30.40;;
3447;SDS011;1738;49.500;17.736;2023-03-01T00:22:55;61.78;;;30.02;;
3447;SDS011;1738;49.500;17.736;2023-03-01T00:25:20;57.23;;;29.50;;
3447;SDS011;1738;49.500;17.736;2023-03-01T00:27:46;53.43;;;27.97;;
3447;SDS011;1738;49.500;17.736;2023-03-01T00:30:12;66.27;;;31.30;;
3447;SDS011;1738;49.500;17.736;2023-03-01T00:32:38;48.63;;;28.13;;
3447;SDS011;1738;49.500;17.736;2023-03-01T00:35:04;49.47;;;29.00;;
3447;SDS011;1738;49.500;17.736;2023-03-01T00:37:30;63.03;;;33.67;;
3447;SDS011;1738;49.500;17.736;2023-03-01T00:39:56;55.10;;;30.57;;
3447;SDS011;1738;49.500;17.736;2023-03-01T00:42:21;57.95;;;30.37;;
3447;SDS011;1738;49.500;17.736;2023-03-01T00:44:47;53.33;;;28.50;;
3447;SDS011;1738;49.500;17.736;2023-03-01T00:47:13;46.43;;;27.67;;
3447;SDS011;1738;49.500;17.736;2023-03-01T00:49:39;54.00;;;30.10;;
3447;SDS011;1738;49.500;17.736;2023-03-01T00:52:05;55.57;;;28.23;;
3447;SDS011;1738;49.500;17.736;2023-03-01T00:54:31;60.73;;;27.47;;
3447;SDS011;1738;49.500;17.736;2023-03-01T00:56:56;48.63;;;27.70;;
3447;SDS011;1738;49.500;17.736;2023-03-01T00:59:22;43.30;;;26.10;;
3447;SDS011;1738;49.500;17.736;2023-03-01T01:01:48;56.87;;;27.37;;
3447;SDS011;1738;49.500;17.736;2023-03-01T01:04:14;53.50;;;30.27;;
3447;SDS011;1738;49.500;17.736;2023-03-01T01:06:41;47.90;;;27.27;;
3447;SDS011;1738;49.500;17.736;2023-03-01T01:09:06;55.85;;;31.40;;
3447;SDS011;1738;49.500;17.736;2023-03-01T01:11:32;50.80;;;25.07;;
3447;SDS011;1738;49.500;17.736;2023-03-01T01:13:58;48.90;;;29.43;;
3447;SDS011;1738;49.500;17.736;2023-03-01T01:16:24;53.13;;;30.47;;
3447;SDS011;1738;49.500;17.736;2023-03-01T01:18:49;49.10;;;30.47;;
3447;SDS011;1738;49.500;17.736;2023-03-01T01:21:16;53.40;;;27.95;;
3447;SDS011;1738;49.500;17.736;2023-03-01T01:23:41;61.97;;;31.70;;
3447;SDS011;1738;49.500;17.736;2023-03-01T01:26:09;47.27;;;27.47;;
3447;SDS011;1738;49.500;17.736;2023-03-01T01:28:32;58.40;;;29.58;;
3447;SDS011;1738;49.500;17.736;2023-03-01T01:30:59;54.43;;;30.83;;
3447;SDS011;1738;49.500;17.736;2023-03-01T01:33:24;54.63;;;29.70;;
3447;SDS011;1738;49.500;17.736;2023-03-01T01:35:50;65.73;;;30.40;;
3447;SDS011;1738;49.500;17.736;2023-03-01T01:38:16;54.93;;;28.90;;
3447;SDS011;1738;49.500;17.736;2023-03-01T01:40:44;49.70;;;27.53;;
3447;SDS011;1738;49.500;17.736;2023-03-01T01:43:19;51.40;;;26.93;;
3447;SDS011;1738;49.500;17.736;2023-03-01T01:45:45;51.13;;;28.13;;
3447;SDS011;1738;49.500;17.736;2023-03-01T01:48:12;54.37;;;28.30;;
3447;SDS011;1738;49.500;17.736;2023-03-01T01:50:37;63.10;;;29.00;;
3447;SDS011;1738;49.500;17.736;2023-03-01T01:53:05;60.17;;;29.27;;
3447;SDS011;1738;49.500;17.736;2023-03-01T01:55:30;61.97;;;30.17;;
3447;SDS011;1738;49.500;17.736;2023-03-01T01:57:56;60.33;;;32.90;;
3447;SDS011;1738;49.500;17.736;2023-03-01T02:00:23;56.73;;;32.07;;
3447;SDS011;1738;49.500;17.736;2023-03-01T02:02:48;48.47;;;27.97;;
3447;SDS011;1738;49.500;17.736;2023-03-01T02:05:20;64.28;;;33.15;;
3447;SDS011;1738;49.500;17.736;2023-03-01T02:07:43;56.27;;;30.37;;
3447;SDS011;1738;49.500;17.736;2023-03-01T02:10:09;51.60;;;28.33;;
3447;SDS011;1738;49.500;17.736;2023-03-01T02:12:35;64.60;;;32.13;;
3447;SDS011;1738;49.500;17.736;2023-03-01T02:15:01;51.17;;;25.27;;
3447;SDS011;1738;49.500;17.736;2023-03-01T02:17:26;48.20;;;27.23;;
3447;SDS011;1738;49.500;17.736;2023-03-01T02:22:25;49.30;;;27.80;;
3447;SDS011;1738;49.500;17.736;2023-03-01T02:24:53;54.40;;;30.73;;
3447;SDS011;1738;49.500;17.736;2023-03-01T02:27:16;46.67;;;25.03;;
3447;SDS011;1738;49.500;17.736;2023-03-01T02:29:41;56.67;;;29.90;;
3447;SDS011;1738;49.500;17.736;2023-03-01T02:32:07;54.07;;;29.97;;
3447;SDS011;1738;49.500;17.736;2023-03-01T02:34:33;52.67;;;27.60;;
3447;SDS011;1738;49.500;17.736;2023-03-01T02:37:01;54.53;;;29.03;;
3447;SDS011;1738;49.500;17.736;2023-03-01T02:39:28;61.03;;;25.80;;
3447;SDS011;1738;49.500;17.736;2023-03-01T02:41:53;62.27;;;30.23;;
3447;SDS011;1738;49.500;17.736;2023-03-01T02:44:18;50.43;;;24.70;;
3447;SDS011;1738;49.500;17.736;2023-03-01T02:46:46;50.77;;;25.77;;
3447;SDS011;1738;49.500;17.736;2023-03-01T02:51:44;47.83;;;24.10;;
3447;SDS011;1738;49.500;17.736;2023-03-01T02:54:21;56.00;;;32.10;;
3447;SDS011;1738;49.500;17.736;2023-03-01T02:56:46;51.17;;;22.23;;
3447;SDS011;1738;49.500;17.736;2023-03-01T02:59:13;41.30;;;21.95;;
3447;SDS011;1738;49.500;17.736;2023-03-01T03:01:39;54.77;;;28.37;;
3447;SDS011;1738;49.500;17.736;2023-03-01T03:04:06;54.30;;;31.00;;
3447;SDS011;1738;49.500;17.736;2023-03-01T03:06:31;64.37;;;31.10;;
3447;SDS011;1738;49.500;17.736;2023-03-01T03:08:57;54.27;;;31.70;;
3447;SDS011;1738;49.500;17.736;2023-03-01T03:11:23;59.55;;;33.05;;
3447;SDS011;1738;49.500;17.736;2023-03-01T03:13:48;57.50;;;30.27;;
3447;SDS011;1738;49.500;17.736;2023-03-01T03:16:14;43.50;;;24.30;;
3447;SDS011;1738;49.500;17.736;2023-03-01T03:18:40;52.37;;;26.87;;
3447;SDS011;1738;49.500;17.736;2023-03-01T03:21:08;77.80;;;35.97;;
3447;SDS011;1738;49.500;17.736;2023-03-01T03:23:32;64.73;;;34.77;;
3447;SDS011;1738;49.500;17.736;2023-03-01T03:25:58;68.50;;;33.40;;
3447;SDS011;1738;49.500;17.736;2023-03-01T03:28:24;73.07;;;34.67;;
3447;SDS011;1738;49.500;17.736;2023-03-01T03:30:50;70.17;;;34.33;;
3447;SDS011;1738;49.500;17.736;2023-03-01T03:33:16;77.90;;;35.07;;
3447;SDS011;1738;49.500;17.736;2023-03-01T03:35:44;51.37;;;29.27;;
3447;SDS011;1738;49.500;17.736;2023-03-01T03:38:09;61.70;;;34.00;;
3447;SDS011;1738;49.500;17.736;2023-03-01T03:40:36;73.30;;;36.72;;
3447;SDS011;1738;49.500;17.736;2023-03-01T03:43:02;67.73;;;33.37;;
3447;SDS011;1738;49.500;17.736;2023-03-01T03:45:27;58.22;;;31.15;;
3447;SDS011;1738;49.500;17.736;2023-03-01T03:47:52;72.17;;;35.87;;
3447;SDS011;1738;49.500;17.736;2023-03-01T03:50:18;72.47;;;35.40;;
3447;SDS011;1738;49.500;17.736;2023-03-01T03:52:44;76.70;;;38.47;;
3447;SDS011;1738;49.500;17.736;2023-03-01T03:55:11;67.30;;;36.17;;
3447;SDS011;1738;49.500;17.736;2023-03-01T03:57:37;73.57;;;37.03;;
3447;SDS011;1738;49.500;17.736;2023-03-01T04:00:03;68.30;;;35.23;;
3447;SDS011;1738;49.500;17.736;2023-03-01T04:02:29;79.10;;;37.57;;
3447;SDS011;1738;49.500;17.736;2023-03-01T04:04:55;72.80;;;35.60;;
3447;SDS011;1738;49.500;17.736;2023-03-01T04:07:21;67.60;;;35.97;;
3447;SDS011;1738;49.500;17.736;2023-03-01T04:09:46;76.43;;;38.10;;
3447;SDS011;1738;49.500;17.736;2023-03-01T04:12:12;73.07;;;36.90;;
3447;SDS011;1738;49.500;17.736;2023-03-01T04:14:38;79.00;;;39.97;;
3447;SDS011;1738;49.500;17.736;2023-03-01T04:17:04;84.43;;;40.30;;
3447;SDS011;1738;49.500;17.736;2023-03-01T04:19:30;78.13;;;39.17;;
3447;SDS011;1738;49.500;17.736;2023-03-01T04:21:56;62.03;;;34.70;;
3447;SDS011;1738;49.500;17.736;2023-03-01T04:24:22;76.50;;;41.67;;
3447;SDS011;1738;49.500;17.736;2023-03-01T04:26:47;83.97;;;44.80;;
3447;SDS011;1738;49.500;17.736;2023-03-01T04:29:14;82.40;;;39.00;;
3447;SDS011;1738;49.500;17.736;2023-03-01T04:31:40;95.20;;;52.93;;
3447;SDS011;1738;49.500;17.736;2023-03-01T04:34:06;119.60;;;64.93;;
3447;SDS011;1738;49.500;17.736;2023-03-01T04:36:31;162.60;;;82.27;;
3447;SDS011;1738;49.500;17.736;2023-03-01T04:38:57;97.93;;;51.30;;
3447;SDS011;1738;49.500;17.736;2023-03-01T04:41:24;100.37;;;53.73;;
3447;SDS011;1738;49.500;17.736;2023-03-01T04:43:49;93.97;;;52.77;;
3447;SDS011;1738;49.500;17.736;2023-03-01T04:46:16;99.13;;;52.10;;
3447;SDS011;1738;49.500;17.736;2023-03-01T04:48:41;107.23;;;50.90;;
3447;SDS011;1738;49.500;17.736;2023-03-01T04:51:07;103.82;;;43.05;;
3447;SDS011;1738;49.500;17.736;2023-03-01T04:53:32;82.20;;;43.20;;
3447;SDS011;1738;49.500;17.736;2023-03-01T04:55:58;82.30;;;43.37;;
3447;SDS011;1738;49.500;17.736;2023-03-01T04:58:26;73.15;;;39.70;;
3447;SDS011;1738;49.500;17.736;2023-03-01T05:00:51;85.67;;;45.13;;
3447;SDS011;1738;49.500;17.736;2023-03-01T05:03:16;68.83;;;37.23;;
3447;SDS011;1738;49.500;17.736;2023-03-01T05:05:42;85.93;;;44.20;;
3447;SDS011;1738;49.500;17.736;2023-03-01T05:08:08;81.43;;;42.27;;
3447;SDS011;1738;49.500;17.736;2023-03-01T05:10:35;84.62;;;43.35;;
3447;SDS011;1738;49.500;17.736;2023-03-01T05:13:00;99.90;;;47.83;;
3447;SDS011;1738;49.500;17.736;2023-03-01T05:15:26;93.87;;;44.37;;
3447;SDS011;1738;49.500;17.736;2023-03-01T05:17:52;95.83;;;46.40;;
3447;SDS011;1738;49.500;17.736;2023-03-01T05:20:18;98.70;;;51.73;;
3447;SDS011;1738;49.500;17.736;2023-03-01T05:22:43;79.90;;;42.88;;
3447;SDS011;1738;49.500;17.736;2023-03-01T05:25:09;90.23;;;44.07;;
3447;SDS011;1738;49.500;17.736;2023-03-01T05:27:35;91.67;;;48.43;;
3447;SDS011;1738;49.500;17.736;2023-03-01T05:30:01;94.17;;;46.30;;
3447;SDS011;1738;49.500;17.736;2023-03-01T05:32:27;111.37;;;50.60;;
3447;SDS011;1738;49.500;17.736;2023-03-01T05:34:53;102.27;;;48.00;;
3447;SDS011;1738;49.500;17.736;2023-03-01T05:37:19;92.83;;;46.97;;
3447;SDS011;1738;49.500;17.736;2023-03-01T05:39:45;87.03;;;46.00;;
3447;SDS011;1738;49.500;17.736;2023-03-01T05:42:11;85.60;;;48.00;;
3447;SDS011;1738;49.500;17.736;2023-03-01T05:44:37;94.03;;;43.60;;
3447;SDS011;1738;49.500;17.736;2023-03-01T05:47:02;95.87;;;48.60;;
3447;SDS011;1738;49.500;17.736;2023-03-01T05:49:28;85.80;;;43.00;;
3447;SDS011;1738;49.500;17.736;2023-03-01T05:51:54;96.50;;;44.37;;
3447;SDS011;1738;49.500;17.736;2023-03-01T05:54:20;94.87;;;47.40;;
3447;SDS011;1738;49.500;17.736;2023-03-01T05:56:46;97.73;;;45.20;;
3447;SDS011;1738;49.500;17.736;2023-03-01T05:59:12;103.13;;;49.60;;
3447;SDS011;1738;49.500;17.736;2023-03-01T06:01:38;109.07;;;48.40;;
3447;SDS011;1738;49.500;17.736;2023-03-01T06:04:04;90.77;;;45.80;;
3447;SDS011;1738;49.500;17.736;2023-03-01T06:06:33;111.00;;;48.08;;
3447;SDS011;1738;49.500;17.736;2023-03-01T06:08:55;80.50;;;42.20;;
3447;SDS011;1738;49.500;17.736;2023-03-01T06:11:21;103.40;;;44.40;;
3447;SDS011;1738;49.500;17.736;2023-03-01T06:13:47;113.30;;;49.30;;
3447;SDS011;1738;49.500;17.736;2023-03-01T06:16:13;91.17;;;44.57;;
3447;SDS011;1738;49.500;17.736;2023-03-01T06:18:39;90.70;;;45.00;;
3447;SDS011;1738;49.500;17.736;2023-03-01T06:21:05;87.70;;;43.53;;
3447;SDS011;1738;49.500;17.736;2023-03-01T06:23:31;92.47;;;44.13;;
3447;SDS011;1738;49.500;17.736;2023-03-01T06:25:56;94.93;;;50.00;;
3447;SDS011;1738;49.500;17.736;2023-03-01T06:28:22;76.73;;;42.60;;
3447;SDS011;1738;49.500;17.736;2023-03-01T06:30:49;89.23;;;46.30;;
3447;SDS011;1738;49.500;17.736;2023-03-01T06:33:14;90.60;;;39.30;;
3447;SDS011;1738;49.500;17.736;2023-03-01T06:35:40;89.37;;;45.53;;
3447;SDS011;1738;49.500;17.736;2023-03-01T06:38:06;82.33;;;42.87;;
3447;SDS011;1738;49.500;17.736;2023-03-01T06:40:31;88.17;;;41.97;;
3447;SDS011;1738;49.500;17.736;2023-03-01T06:42:58;96.23;;;44.60;;
3447;SDS011;1738;49.500;17.736;2023-03-01T06:45:23;81.60;;;45.00;;
3447;SDS011;1738;49.500;17.736;2023-03-01T06:47:49;76.50;;;42.03;;
3447;SDS011;1738;49.500;17.736;2023-03-01T06:50:15;77.90;;;37.50;;
3447;SDS011;1738;49.500;17.736;2023-03-01T06:52:41;79.97;;;40.90;;
3447;SDS011;1738;49.500;17.736;2023-03-01T06:55:07;82.50;;;37.90;;
3447;SDS011;1738;49.500;17.736;2023-03-01T06:57:33;70.23;;;32.37;;
3447;SDS011;1738;49.500;17.736;2023-03-01T06:59:59;54.07;;;24.60;;
3447;SDS011;1738;49.500;17.736;2023-03-01T07:02:25;86.80;;;38.63;;
3447;SDS011;1738;49.500;17.736;2023-03-01T07:04:51;92.00;;;44.77;;
3447;SDS011;1738;49.500;17.736;2023-03-01T07:07:17;78.70;;;39.67;;
3447;SDS011;1738;49.500;17.736;2023-03-01T07:09:42;67.85;;;34.45;;
3447;SDS011;1738;49.500;17.736;2023-03-01T07:12:08;68.17;;;34.33;;
3447;SDS011;1738;49.500;17.736;2023-03-01T07:14:34;54.70;;;29.13;;
3447;SDS011;1738;49.500;17.736;2023-03-01T07:17:00;47.92;;;30.23;;
3447;SDS011;1738;49.500;17.736;2023-03-01T07:19:26;89.73;;;39.33;;
3447;SDS011;1738;49.500;17.736;2023-03-01T07:21:51;87.77;;;41.13;;
3447;SDS011;1738;49.500;17.736;2023-03-01T07:24:17;46.63;;;27.10;;
3447;SDS011;1738;49.500;17.736;2023-03-01T07:26:43;65.20;;;35.83;;
3447;SDS011;1738;49.500;17.736;2023-03-01T07:29:10;39.33;;;20.30;;
3447;SDS011;1738;49.500;17.736;2023-03-01T07:31:35;75.25;;;39.13;;
3447;SDS011;1738;49.500;17.736;2023-03-01T07:34:01;81.50;;;43.60;;
3447;SDS011;1738;49.500;17.736;2023-03-01T07:36:27;75.77;;;37.57;;
3447;SDS011;1738;49.500;17.736;2023-03-01T07:38:52;53.10;;;26.13;;
3447;SDS011;1738;49.500;17.736;2023-03-01T07:41:18;59.37;;;30.33;;
3447;SDS011;1738;49.500;17.736;2023-03-01T07:43:44;47.00;;;22.60;;
3447;SDS011;1738;49.500;17.736;2023-03-01T07:46:10;33.78;;;17.17;;
3447;SDS011;1738;49.500;17.736;2023-03-01T07:48:36;83.50;;;41.37;;
3447;SDS011;1738;49.500;17.736;2023-03-01T07:51:03;69.63;;;36.57;;
3447;SDS011;1738;49.500;17.736;2023-03-01T07:53:28;65.55;;;32.58;;
3447;SDS011;1738;49.500;17.736;2023-03-01T07:56:00;60.17;;;31.80;;
3447;SDS011;1738;49.500;17.736;2023-03-01T07:58:25;40.80;;;25.00;;
3447;SDS011;1738;49.500;17.736;2023-03-01T08:00:51;98.47;;;45.73;;
3447;SDS011;1738;49.500;17.736;2023-03-01T08:03:17;59.30;;;25.27;;
3447;SDS011;1738;49.500;17.736;2023-03-01T08:05:43;40.30;;;21.73;;
3447;SDS011;1738;49.500;17.736;2023-03-01T08:08:08;38.67;;;20.53;;
3447;SDS011;1738;49.500;17.736;2023-03-01T08:10:35;31.70;;;17.45;;
3447;SDS011;1738;49.500;17.736;2023-03-01T08:13:00;84.00;;;39.70;;
3447;SDS011;1738;49.500;17.736;2023-03-01T08:15:26;121.57;;;46.17;;
3447;SDS011;1738;49.500;17.736;2023-03-01T08:17:52;53.03;;;28.93;;
3447;SDS011;1738;49.500;17.736;2023-03-01T08:20:18;64.77;;;34.57;;
3447;SDS011;1738;49.500;17.736;2023-03-01T08:22:43;66.57;;;36.50;;
3447;SDS011;1738;49.500;17.736;2023-03-01T08:25:09;54.83;;;31.33;;
3447;SDS011;1738;49.500;17.736;2023-03-01T08:27:35;45.37;;;21.67;;
3447;SDS011;1738;49.500;17.736;2023-03-01T08:30:01;66.70;;;28.20;;
3447;SDS011;1738;49.500;17.736;2023-03-01T08:32:27;68.63;;;33.57;;
3447;SDS011;1738;49.500;17.736;2023-03-01T08:34:53;38.03;;;20.43;;
3447;SDS011;1738;49.500;17.736;2023-03-01T08:37:19;57.67;;;32.00;;
3447;SDS011;1738;49.500;17.736;2023-03-01T08:39:44;52.43;;;26.00;;
3447;SDS011;1738;49.500;17.736;2023-03-01T08:42:10;43.37;;;22.10;;
3447;SDS011;1738;49.500;17.736;2023-03-01T08:44:36;54.90;;;28.17;;
3447;SDS011;1738;49.500;17.736;2023-03-01T08:47:02;192.67;;;93.07;;
3447;SDS011;1738;49.500;17.736;2023-03-01T08:49:28;127.27;;;57.87;;
3447;SDS011;1738;49.500;17.736;2023-03-01T08:51:54;76.33;;;39.23;;
3447;SDS011;1738;49.500;17.736;2023-03-01T08:54:20;65.47;;;35.27;;
3447;SDS011;1738;49.500;17.736;2023-03-01T08:56:45;34.30;;;19.10;;
3447;SDS011;1738;49.500;17.736;2023-03-01T08:59:11;61.77;;;33.43;;
3447;SDS011;1738;49.500;17.736;2023-03-01T09:01:37;49.27;;;21.37;;
3447;SDS011;1738;49.500;17.736;2023-03-01T09:04:03;51.30;;;27.90;;
3447;SDS011;1738;49.500;17.736;2023-03-01T09:06:30;25.23;;;15.07;;
3447;SDS011;1738;49.500;17.736;2023-03-01T09:08:55;43.57;;;19.07;;
3447;SDS011;1738;49.500;17.736;2023-03-01T09:11:21;44.83;;;21.30;;
3447;SDS011;1738;49.500;17.736;2023-03-01T09:13:48;45.87;;;27.80;;
3447;SDS011;1738;49.500;17.736;2023-03-01T09:16:14;55.23;;;29.27;;
3447;SDS011;1738;49.500;17.736;2023-03-01T09:18:39;52.03;;;22.27;;
3447;SDS011;1738;49.500;17.736;2023-03-01T09:21:06;55.50;;;29.40;;
3447;SDS011;1738;49.500;17.736;2023-03-01T09:23:31;40.70;;;21.73;;
3447;SDS011;1738;49.500;17.736;2023-03-01T09:25:57;32.83;;;18.40;;
3447;SDS011;1738;49.500;17.736;2023-03-01T09:28:23;46.57;;;27.67;;
3447;SDS011;1738;49.500;17.736;2023-03-01T09:30:49;38.80;;;20.43;;
3447;SDS011;1738;49.500;17.736;2023-03-01T09:33:15;41.83;;;24.87;;
3447;SDS011;1738;49.500;17.736;2023-03-01T09:35:41;44.00;;;25.90;;
3447;SDS011;1738;49.500;17.736;2023-03-01T09:38:06;32.30;;;19.57;;
3447;SDS011;1738;49.500;17.736;2023-03-01T09:40:32;46.53;;;26.13;;
3447;SDS011;1738;49.500;17.736;2023-03-01T09:43:02;46.92;;;25.90;;
3447;SDS011;1738;49.500;17.736;2023-03-01T09:45:26;41.10;;;21.97;;
3447;SDS011;1738;49.500;17.736;2023-03-01T09:47:51;48.03;;;28.73;;
3447;SDS011;1738;49.500;17.736;2023-03-01T09:50:17;42.67;;;24.90;;
3447;SDS011;1738;49.500;17.736;2023-03-01T09:52:46;28.13;;;16.03;;
3447;SDS011;1738;49.500;17.736;2023-03-01T09:55:12;21.77;;;13.77;;
3447;SDS011;1738;49.500;17.736;2023-03-01T09:57:41;48.60;;;27.03;;
3447;SDS011;1738;49.500;17.736;2023-03-01T10:00:15;33.27;;;16.90;;
3447;SDS011;1738;49.500;17.736;2023-03-01T10:02:42;45.47;;;28.47;;
3447;SDS011;1738;49.500;17.736;2023-03-01T10:05:29;38.03;;;17.50;;
3447;SDS011;1738;49.500;17.736;2023-03-01T10:08:02;21.57;;;14.10;;
3447;SDS011;1738;49.500;17.736;2023-03-01T10:10:28;41.13;;;23.10;;
3447;SDS011;1738;49.500;17.736;2023-03-01T10:12:54;48.93;;;24.60;;
3447;SDS011;1738;49.500;17.736;2023-03-01T10:15:22;26.73;;;15.20;;
3447;SDS011;1738;49.500;17.736;2023-03-01T10:17:47;36.80;;;15.63;;
3447;SDS011;1738;49.500;17.736;2023-03-01T10:20:14;34.73;;;24.90;;
3447;SDS011;1738;49.500;17.736;2023-03-01T10:22:38;43.67;;;23.90;;
3447;SDS011;1738;49.500;17.736;2023-03-01T10:25:04;41.83;;;23.70;;
3447;SDS011;1738;49.500;17.736;2023-03-01T10:27:37;37.40;;;19.97;;
3447;SDS011;1738;49.500;17.736;2023-03-01T10:30:10;36.87;;;19.47;;
3447;SDS011;1738;49.500;17.736;2023-03-01T10:32:32;63.03;;;29.37;;
3447;SDS011;1738;49.500;17.736;2023-03-01T10:34:57;33.23;;;21.40;;
3447;SDS011;1738;49.500;17.736;2023-03-01T10:37:24;32.17;;;17.30;;
3447;SDS011;1738;49.500;17.736;2023-03-01T10:39:55;35.97;;;19.50;;
3447;SDS011;1738;49.500;17.736;2023-03-01T10:42:25;46.60;;;26.10;;
3447;SDS011;1738;49.500;17.736;2023-03-01T10:44:49;25.33;;;15.03;;
3447;SDS011;1738;49.500;17.736;2023-03-01T10:47:16;43.47;;;25.20;;
3447;SDS011;1738;49.500;17.736;2023-03-01T10:49:51;46.57;;;31.37;;
3447;SDS011;1738;49.500;17.736;2023-03-01T10:52:16;44.33;;;25.40;;
3447;SDS011;1738;49.500;17.736;2023-03-01T10:54:37;58.10;;;26.63;;
3447;SDS011;1738;49.500;17.736;2023-03-01T10:57:04;47.00;;;19.27;;
3447;SDS011;1738;49.500;17.736;2023-03-01T10:59:30;34.00;;;19.17;;
3447;SDS011;1738;49.500;17.736;2023-03-01T11:04:36;35.03;;;23.17;;
3447;SDS011;1738;49.500;17.736;2023-03-01T11:07:02;33.28;;;21.05;;
3447;SDS011;1738;49.500;17.736;2023-03-01T11:09:31;40.38;;;23.52;;
3447;SDS011;1738;49.500;17.736;2023-03-01T11:11:57;24.97;;;17.73;;
3447;SDS011;1738;49.500;17.736;2023-03-01T11:14:24;35.53;;;17.63;;
3447;SDS011;1738;49.500;17.736;2023-03-01T11:16:57;37.03;;;19.30;;
3447;SDS011;1738;49.500;17.736;2023-03-01T11:19:16;26.93;;;15.20;;
3447;SDS011;1738;49.500;17.736;2023-03-01T11:21:42;33.97;;;22.13;;
3447;SDS011;1738;49.500;17.736;2023-03-01T11:24:09;26.83;;;16.43;;
3447;SDS011;1738;49.500;17.736;2023-03-01T11:26:34;24.97;;;12.97;;
3447;SDS011;1738;49.500;17.736;2023-03-01T11:28:59;47.90;;;20.13;;
3447;SDS011;1738;49.500;17.736;2023-03-01T11:31:24;43.77;;;25.80;;
3447;SDS011;1738;49.500;17.736;2023-03-01T11:33:53;41.30;;;20.77;;
3447;SDS011;1738;49.500;17.736;2023-03-01T11:36:28;46.47;;;28.33;;
3447;SDS011;1738;49.500;17.736;2023-03-01T11:38:53;42.47;;;23.87;;
3447;SDS011;1738;49.500;17.736;2023-03-01T11:41:20;33.08;;;18.02;;
3447;SDS011;1738;49.500;17.736;2023-03-01T11:43:48;32.43;;;17.33;;
3447;SDS011;1738;49.500;17.736;2023-03-01T11:48:51;41.20;;;22.63;;
3447;SDS011;1738;49.500;17.736;2023-03-01T11:53:58;47.43;;;27.27;;
3447;SDS011;1738;49.500;17.736;2023-03-01T11:59:11;43.50;;;21.67;;
3447;SDS011;1738;49.500;17.736;2023-03-01T12:01:42;43.13;;;25.77;;
3447;SDS011;1738;49.500;17.736;2023-03-01T12:04:16;49.43;;;25.17;;
3447;SDS011;1738;49.500;17.736;2023-03-01T12:06:42;32.90;;;17.23;;
3447;SDS011;1738;49.500;17.736;2023-03-01T12:09:09;29.52;;;16.75;;
3447;SDS011;1738;49.500;17.736;2023-03-01T12:11:39;29.57;;;21.90;;
3447;SDS011;1738;49.500;17.736;2023-03-01T12:14:39;38.70;;;21.90;;
3447;SDS011;1738;49.500;17.736;2023-03-01T12:19:23;30.27;;;17.40;;
3447;SDS011;1738;49.500;17.736;2023-03-01T12:24:36;49.17;;;24.80;;
3447;SDS011;1738;49.500;17.736;2023-03-01T12:27:10;41.27;;;20.63;;
3447;SDS011;1738;49.500;17.736;2023-03-01T12:29:38;51.27;;;29.93;;
3447;SDS011;1738;49.500;17.736;2023-03-01T12:35:07;48.40;;;27.10;;
3447;SDS011;1738;49.500;17.736;2023-03-01T12:37:18;50.30;;;28.57;;
3447;SDS011;1738;49.500;17.736;2023-03-01T12:40:03;44.67;;;24.40;;
3447;SDS011;1738;49.500;17.736;2023-03-01T12:45:05;47.50;;;29.60;;
3447;SDS011;1738;49.500;17.736;2023-03-01T12:47:31;33.20;;;21.30;;
3447;SDS011;1738;49.500;17.736;2023-03-01T12:49:55;39.37;;;20.33;;
3447;SDS011;1738;49.500;17.736;2023-03-01T12:52:26;47.85;;;24.98;;
3447;SDS011;1738;49.500;17.736;2023-03-01T12:54:49;49.73;;;28.03;;
3447;SDS011;1738;49.500;17.736;2023-03-01T12:57:16;45.77;;;23.20;;
3447;SDS011;1738;49.500;17.736;2023-03-01T12:59:44;38.47;;;19.47;;
3447;SDS011;1738;49.500;17.736;2023-03-01T13:02:13;47.60;;;31.87;;
3447;SDS011;1738;49.500;17.736;2023-03-01T13:04:49;56.43;;;26.83;;
3447;SDS011;1738;49.500;17.736;2023-03-01T13:07:48;68.93;;;35.60;;
3447;SDS011;1738;49.500;17.736;2023-03-01T13:10:11;45.77;;;25.27;;
3447;SDS011;1738;49.500;17.736;2023-03-01T13:15:13;57.63;;;34.97;;
3447;SDS011;1738;49.500;17.736;2023-03-01T13:17:32;59.33;;;35.80;;
3447;SDS011;1738;49.500;17.736;2023-03-01T13:19:57;69.63;;;40.10;;
3447;SDS011;1738;49.500;17.736;2023-03-01T13:22:25;63.33;;;31.97;;
3447;SDS011;1738;49.500;17.736;2023-03-01T13:24:51;49.00;;;26.40;;
3447;SDS011;1738;49.500;17.736;2023-03-01T13:27:21;61.67;;;34.73;;
3447;SDS011;1738;49.500;17.736;2023-03-01T13:29:47;61.17;;;32.90;;
3447;SDS011;1738;49.500;17.736;2023-03-01T13:32:19;38.67;;;24.70;;
3447;SDS011;1738;49.500;17.736;2023-03-01T13:34:46;56.50;;;28.97;;
3447;SDS011;1738;49.500;17.736;2023-03-01T13:37:18;69.23;;;36.20;;
3447;SDS011;1738;49.500;17.736;2023-03-01T13:39:39;53.33;;;25.73;;
3447;SDS011;1738;49.500;17.736;2023-03-01T13:42:25;61.73;;;30.43;;
3447;SDS011;1738;49.500;17.736;2023-03-01T13:44:33;76.37;;;41.30;;
3447;SDS011;1738;49.500;17.736;2023-03-01T13:46:59;50.75;;;28.30;;
3447;SDS011;1738;49.500;17.736;2023-03-01T13:49:27;57.60;;;29.20;;
3447;SDS011;1738;49.500;17.736;2023-03-01T13:51:51;62.77;;;28.37;;
3447;SDS011;1738;49.500;17.736;2023-03-01T13:54:25;66.43;;;34.77;;
3447;SDS011;1738;49.500;17.736;2023-03-01T13:56:52;65.43;;;32.70;;
3447;SDS011;1738;49.500;17.736;2023-03-01T13:59:19;62.95;;;33.45;;
3447;SDS011;1738;49.500;17.736;2023-03-01T14:01:43;62.23;;;38.00;;
3447;SDS011;1738;49.500;17.736;2023-03-01T14:06:41;37.07;;;20.53;;
3447;SDS011;1738;49.500;17.736;2023-03-01T14:09:14;45.80;;;23.33;;
3447;SDS011;1738;49.500;17.736;2023-03-01T14:11:43;70.63;;;36.20;;
3447;SDS011;1738;49.500;17.736;2023-03-01T14:14:10;38.20;;;21.40;;
3447;SDS011;1738;49.500;17.736;2023-03-01T14:16:39;59.77;;;29.90;;
3447;SDS011;1738;49.500;17.736;2023-03-01T14:19:32;56.13;;;28.57;;
3447;SDS011;1738;49.500;17.736;2023-03-01T14:21:42;58.90;;;31.43;;
3447;SDS011;1738;49.500;17.736;2023-03-01T14:24:16;67.20;;;36.43;;
3447;SDS011;1738;49.500;17.736;2023-03-01T14:26:39;62.70;;;34.90;;
3447;SDS011;1738;49.500;17.736;2023-03-01T14:29:05;68.73;;;38.80;;
3447;SDS011;1738;49.500;17.736;2023-03-01T14:31:32;59.20;;;26.90;;
3447;SDS011;1738;49.500;17.736;2023-03-01T14:33:57;64.37;;;31.77;;
3447;SDS011;1738;49.500;17.736;2023-03-01T14:36:25;60.40;;;30.40;;
3447;SDS011;1738;49.500;17.736;2023-03-01T14:38:50;58.40;;;31.77;;
3447;SDS011;1738;49.500;17.736;2023-03-01T14:41:19;81.03;;;37.13;;
3447;SDS011;1738;49.500;17.736;2023-03-01T14:43:44;60.27;;;27.00;;
3447;SDS011;1738;49.500;17.736;2023-03-01T14:48:40;91.63;;;47.50;;
3447;SDS011;1738;49.500;17.736;2023-03-01T14:51:06;81.13;;;39.33;;
3447;SDS011;1738;49.500;17.736;2023-03-01T14:53:32;63.67;;;34.50;;
3447;SDS011;1738;49.500;17.736;2023-03-01T14:55:59;35.50;;;23.10;;
3447;SDS011;1738;49.500;17.736;2023-03-01T14:58:25;46.30;;;27.37;;
3447;SDS011;1738;49.500;17.736;2023-03-01T15:00:55;55.37;;;27.00;;
3447;SDS011;1738;49.500;17.736;2023-03-01T15:03:51;43.20;;;25.63;;